sensor_id;sensor_type;location;lat;lon;timestamp;pressure;altitude;pressure_sealevel;temperature;humidity
76808;BME280;65758;45.458;11.062;2023-11-19T00:00:09;101670.34;;;8.28;57.88
76808;BME280;65758;45.458;11.062;2023-11-19T00:02:41;101676.48;;;8.29;58.40
76808;BME280;65758;45.458;11.062;2023-11-19T00:05:10;101654.77;;;8.30;59.37
76808;BME280;65758;45.458;11.062;2023-11-19T00:07:40;101651.50;;;8.33;59.29
76808;BME280;65758;45.458;11.062;2023-11-19T00:10:09;101656.52;;;8.34;58.98
76808;BME280;65758;45.458;11.062;2023-11-19T00:12:39;101656.66;;;8.35;59.36
76808;BME280;65758;45.458;11.062;2023-11-19T00:15:06;101649.15;;;8.35;59.25
76808;BME280;65758;45.458;11.062;2023-11-19T00:17:39;101643.31;;;8.35;59.27
76808;BME280;65758;45.458;11.062;2023-11-19T00:20:14;101632.63;;;8.35;59.01
76808;BME280;65758;45.458;11.062;2023-11-19T00:22:42;101625.81;;;8.34;58.78
76808;BME280;65758;45.458;11.062;2023-11-19T00:25:12;101615.08;;;8.35;59.49
76808;BME280;65758;45.458;11.062;2023-11-19T00:27:39;101609.00;;;8.36;58.80
76808;BME280;65758;45.458;11.062;2023-11-19T00:30:06;101613.94;;;8.38;58.71
76808;BME280;65758;45.458;11.062;2023-11-19T00:32:35;101622.26;;;8.39;59.23
76808;BME280;65758;45.458;11.062;2023-11-19T00:35:03;101621.52;;;8.41;59.60
76808;BME280;65758;45.458;11.062;2023-11-19T00:37:30;101620.77;;;8.44;60.60
76808;BME280;65758;45.458;11.062;2023-11-19T00:39:56;101622.39;;;8.47;59.78
76808;BME280;65758;45.458;11.062;2023-11-19T00:42:25;101630.12;;;8.47;59.76
76808;BME280;65758;45.458;11.062;2023-11-19T00:44:52;101620.98;;;8.48;59.32
76808;BME280;65758;45.458;11.062;2023-11-19T00:47:19;101621.08;;;8.49;59.49
76808;BME280;65758;45.458;11.062;2023-11-19T00:49:48;101620.63;;;8.49;58.75
76808;BME280;65758;45.458;11.062;2023-11-19T00:52:17;101620.61;;;8.48;58.38
76808;BME280;65758;45.458;11.062;2023-11-19T00:54:45;101619.10;;;8.48;58.76
76808;BME280;65758;45.458;11.062;2023-11-19T00:57:12;101620.00;;;8.50;58.80
76808;BME280;65758;45.458;11.062;2023-11-19T00:59:41;101615.94;;;8.53;59.11
76808;BME280;65758;45.458;11.062;2023-11-19T01:02:08;101619.36;;;8.56;58.89
76808;BME280;65758;45.458;11.062;2023-11-19T01:04:36;101613.48;;;8.60;59.59
76808;BME280;65758;45.458;11.062;2023-11-19T01:07:04;101609.92;;;8.63;59.94
76808;BME280;65758;45.458;11.062;2023-11-19T01:09:32;101596.88;;;8.68;60.21
76808;BME280;65758;45.458;11.062;2023-11-19T01:12:02;101597.50;;;8.73;59.85
76808;BME280;65758;45.458;11.062;2023-11-19T01:14:30;101603.98;;;8.76;59.84
76808;BME280;65758;45.458;11.062;2023-11-19T01:16:57;101611.35;;;8.79;60.10
76808;BME280;65758;45.458;11.062;2023-11-19T01:19:24;101604.26;;;8.79;60.35
76808;BME280;65758;45.458;11.062;2023-11-19T01:21:51;101593.44;;;8.81;60.53
76808;BME280;65758;45.458;11.062;2023-11-19T01:24:18;101585.77;;;8.79;60.57
76808;BME280;65758;45.458;11.062;2023-11-19T01:26:46;101583.42;;;8.79;61.14
76808;BME280;65758;45.458;11.062;2023-11-19T01:29:14;101583.98;;;8.78;60.70
76808;BME280;65758;45.458;11.062;2023-11-19T01:31:42;101582.18;;;8.76;60.79
76808;BME280;65758;45.458;11.062;2023-11-19T01:34:10;101583.27;;;8.76;60.72
76808;BME280;65758;45.458;11.062;2023-11-19T01:36:38;101574.85;;;8.75;61.27
76808;BME280;65758;45.458;11.062;2023-11-19T01:39:06;101572.96;;;8.73;61.53
76808;BME280;65758;45.458;11.062;2023-11-19T01:41:36;101577.54;;;8.70;61.79
76808;BME280;65758;45.458;11.062;2023-11-19T01:44:06;101574.70;;;8.66;61.61
76808;BME280;65758;45.458;11.062;2023-11-19T01:46:34;101565.50;;;8.62;61.47
76808;BME280;65758;45.458;11.062;2023-11-19T01:49:02;101559.38;;;8.59;61.01
76808;BME280;65758;45.458;11.062;2023-11-19T01:51:29;101562.27;;;8.58;61.21
76808;BME280;65758;45.458;11.062;2023-11-19T01:53:57;101565.86;;;8.57;61.09
76808;BME280;65758;45.458;11.062;2023-11-19T01:56:25;101567.13;;;8.54;61.20
76808;BME280;65758;45.458;11.062;2023-11-19T01:58:54;101570.49;;;8.50;61.33
76808;BME280;65758;45.458;11.062;2023-11-19T02:01:23;101569.42;;;8.45;61.29
76808;BME280;65758;45.458;11.062;2023-11-19T02:03:51;101562.03;;;8.40;61.04
76808;BME280;65758;45.458;11.062;2023-11-19T02:06:19;101564.08;;;8.36;61.32
76808;BME280;65758;45.458;11.062;2023-11-19T02:08:46;101556.51;;;8.35;61.38
76808;BME280;65758;45.458;11.062;2023-11-19T02:11:13;101559.39;;;8.33;61.26
76808;BME280;65758;45.458;11.062;2023-11-19T02:13:39;101551.04;;;8.33;61.40
76808;BME280;65758;45.458;11.062;2023-11-19T02:16:08;101552.19;;;8.35;61.37
76808;BME280;65758;45.458;11.062;2023-11-19T02:18:36;101550.73;;;8.33;61.57
76808;BME280;65758;45.458;11.062;2023-11-19T02:21:03;101541.77;;;8.30;61.73
76808;BME280;65758;45.458;11.062;2023-11-19T02:23:32;101536.95;;;8.30;62.11
76808;BME280;65758;45.458;11.062;2023-11-19T02:26:10;101535.67;;;8.31;62.37
76808;BME280;65758;45.458;11.062;2023-11-19T02:28:42;101529.52;;;8.31;62.62
76808;BME280;65758;45.458;11.062;2023-11-19T02:31:10;101532.59;;;8.30;62.78
76808;BME280;65758;45.458;11.062;2023-11-19T02:33:38;101533.67;;;8.28;62.78
76808;BME280;65758;45.458;11.062;2023-11-19T02:36:07;101530.10;;;8.25;62.70
76808;BME280;65758;45.458;11.062;2023-11-19T02:38:35;101526.95;;;8.21;63.25
76808;BME280;65758;45.458;11.062;2023-11-19T02:41:06;101517.23;;;8.17;63.25
76808;BME280;65758;45.458;11.062;2023-11-19T02:43:34;101505.84;;;8.12;63.33
76808;BME280;65758;45.458;11.062;2023-11-19T02:46:02;101508.17;;;8.07;63.48
76808;BME280;65758;45.458;11.062;2023-11-19T02:48:41;101508.16;;;8.03;63.77
76808;BME280;65758;45.458;11.062;2023-11-19T02:51:09;101505.05;;;7.99;63.65
76808;BME280;65758;45.458;11.062;2023-11-19T02:53:37;101510.34;;;7.96;63.74
76808;BME280;65758;45.458;11.062;2023-11-19T02:56:06;101506.13;;;7.95;63.76
76808;BME280;65758;45.458;11.062;2023-11-19T02:58:38;101502.55;;;7.93;63.92
76808;BME280;65758;45.458;11.062;2023-11-19T03:01:05;101500.66;;;7.92;63.86
76808;BME280;65758;45.458;11.062;2023-11-19T03:03:50;101499.88;;;7.91;63.66
76808;BME280;65758;45.458;11.062;2023-11-19T03:06:25;101489.72;;;7.89;64.12
76808;BME280;65758;45.458;11.062;2023-11-19T03:08:52;101490.55;;;7.89;64.19
76808;BME280;65758;45.458;11.062;2023-11-19T03:11:19;101491.80;;;7.89;64.62
76808;BME280;65758;45.458;11.062;2023-11-19T03:13:45;101491.40;;;7.89;64.12
76808;BME280;65758;45.458;11.062;2023-11-19T03:16:13;101495.01;;;7.89;64.49
76808;BME280;65758;45.458;11.062;2023-11-19T03:18:40;101490.77;;;7.87;64.05
76808;BME280;65758;45.458;11.062;2023-11-19T03:21:07;101487.66;;;7.83;64.32
76808;BME280;65758;45.458;11.062;2023-11-19T03:23:36;101492.92;;;7.78;64.23
76808;BME280;65758;45.458;11.062;2023-11-19T03:26:03;101499.73;;;7.73;64.00
76808;BME280;65758;45.458;11.062;2023-11-19T03:28:32;101493.12;;;7.66;64.27
76808;BME280;65758;45.458;11.062;2023-11-19T03:31:00;101493.75;;;7.61;64.22
76808;BME280;65758;45.458;11.062;2023-11-19T03:33:26;101494.70;;;7.56;64.27
76808;BME280;65758;45.458;11.062;2023-11-19T03:35:56;101492.60;;;7.50;64.32
76808;BME280;65758;45.458;11.062;2023-11-19T03:38:24;101493.02;;;7.42;64.10
76808;BME280;65758;45.458;11.062;2023-11-19T03:40:51;101488.16;;;7.36;64.33
76808;BME280;65758;45.458;11.062;2023-11-19T03:43:18;101479.75;;;7.31;64.39
76808;BME280;65758;45.458;11.062;2023-11-19T03:45:48;101475.98;;;7.28;64.27
76808;BME280;65758;45.458;11.062;2023-11-19T03:48:15;101473.10;;;7.23;64.31
76808;BME280;65758;45.458;11.062;2023-11-19T03:50:45;101473.42;;;7.22;64.66
76808;BME280;65758;45.458;11.062;2023-11-19T03:53:12;101473.35;;;7.23;64.72
76808;BME280;65758;45.458;11.062;2023-11-19T03:55:40;101475.42;;;7.23;64.93
76808;BME280;65758;45.458;11.062;2023-11-19T03:58:07;101475.80;;;7.23;64.52
76808;BME280;65758;45.458;11.062;2023-11-19T04:00:34;101463.48;;;7.23;64.60
76808;BME280;65758;45.458;11.062;2023-11-19T04:03:01;101456.38;;;7.23;64.60
76808;BME280;65758;45.458;11.062;2023-11-19T04:05:28;101458.00;;;7.24;64.64
76808;BME280;65758;45.458;11.062;2023-11-19T04:07:54;101457.84;;;7.25;64.42
76808;BME280;65758;45.458;11.062;2023-11-19T04:10:21;101460.48;;;7.25;64.63
76808;BME280;65758;45.458;11.062;2023-11-19T04:12:49;101455.58;;;7.24;64.48
76808;BME280;65758;45.458;11.062;2023-11-19T04:15:16;101447.48;;;7.20;64.52
76808;BME280;65758;45.458;11.062;2023-11-19T04:17:44;101447.97;;;7.16;64.54
76808;BME280;65758;45.458;11.062;2023-11-19T04:20:14;101457.41;;;7.10;64.35
76808;BME280;65758;45.458;11.062;2023-11-19T04:22:41;101456.63;;;7.05;64.57
76808;BME280;65758;45.458;11.062;2023-11-19T04:25:08;101461.65;;;7.00;64.71
76808;BME280;65758;45.458;11.062;2023-11-19T04:27:36;101456.26;;;6.95;64.44
76808;BME280;65758;45.458;11.062;2023-11-19T04:30:03;101450.64;;;6.89;64.74
76808;BME280;65758;45.458;11.062;2023-11-19T04:32:31;101449.98;;;6.84;64.86
76808;BME280;65758;45.458;11.062;2023-11-19T04:34:58;101452.02;;;6.82;64.84
76808;BME280;65758;45.458;11.062;2023-11-19T04:37:25;101450.67;;;6.83;65.13
76808;BME280;65758;45.458;11.062;2023-11-19T04:39:52;101451.59;;;6.85;65.24
76808;BME280;65758;45.458;11.062;2023-11-19T04:42:19;101452.19;;;6.88;65.13
76808;BME280;65758;45.458;11.062;2023-11-19T04:44:46;101454.26;;;6.89;64.89
76808;BME280;65758;45.458;11.062;2023-11-19T04:47:13;101452.45;;;6.89;65.02
76808;BME280;65758;45.458;11.062;2023-11-19T04:49:41;101454.27;;;6.88;65.18
76808;BME280;65758;45.458;11.062;2023-11-19T04:52:11;101447.72;;;6.86;64.55
76808;BME280;65758;45.458;11.062;2023-11-19T04:54:43;101449.84;;;6.83;64.63
76808;BME280;65758;45.458;11.062;2023-11-19T04:57:10;101448.52;;;6.83;64.59
76808;BME280;65758;45.458;11.062;2023-11-19T04:59:38;101443.88;;;6.82;64.96
76808;BME280;65758;45.458;11.062;2023-11-19T05:02:05;101440.98;;;6.79;64.62
76808;BME280;65758;45.458;11.062;2023-11-19T05:04:32;101429.96;;;6.76;64.98
76808;BME280;65758;45.458;11.062;2023-11-19T05:06:59;101424.77;;;6.73;64.63
76808;BME280;65758;45.458;11.062;2023-11-19T05:09:26;101426.73;;;6.72;64.58
76808;BME280;65758;45.458;11.062;2023-11-19T05:11:53;101426.14;;;6.68;65.04
76808;BME280;65758;45.458;11.062;2023-11-19T05:14:20;101420.58;;;6.63;65.12
76808;BME280;65758;45.458;11.062;2023-11-19T05:16:48;101417.53;;;6.61;64.89
76808;BME280;65758;45.458;11.062;2023-11-19T05:19:15;101419.81;;;6.60;65.20
76808;BME280;65758;45.458;11.062;2023-11-19T05:21:43;101422.09;;;6.59;65.07
76808;BME280;65758;45.458;11.062;2023-11-19T05:24:11;101422.02;;;6.60;65.00
76808;BME280;65758;45.458;11.062;2023-11-19T05:26:41;101418.95;;;6.64;65.18
76808;BME280;65758;45.458;11.062;2023-11-19T05:29:08;101411.91;;;6.71;65.31
76808;BME280;65758;45.458;11.062;2023-11-19T05:31:34;101414.40;;;6.78;65.25
76808;BME280;65758;45.458;11.062;2023-11-19T05:34:03;101412.83;;;6.84;65.09
76808;BME280;65758;45.458;11.062;2023-11-19T05:36:31;101408.02;;;6.88;64.94
76808;BME280;65758;45.458;11.062;2023-11-19T05:38:58;101405.85;;;6.90;64.78
76808;BME280;65758;45.458;11.062;2023-11-19T05:41:25;101400.12;;;6.91;64.88
76808;BME280;65758;45.458;11.062;2023-11-19T05:43:51;101400.66;;;6.91;64.94
76808;BME280;65758;45.458;11.062;2023-11-19T05:46:18;101401.73;;;6.90;64.98
76808;BME280;65758;45.458;11.062;2023-11-19T05:48:47;101409.64;;;6.87;65.44
76808;BME280;65758;45.458;11.062;2023-11-19T05:51:14;101409.45;;;6.85;64.97
76808;BME280;65758;45.458;11.062;2023-11-19T05:53:42;101408.91;;;6.80;65.18
76808;BME280;65758;45.458;11.062;2023-11-19T05:56:09;101406.20;;;6.79;65.32
76808;BME280;65758;45.458;11.062;2023-11-19T05:58:36;101405.31;;;6.77;65.45
76808;BME280;65758;45.458;11.062;2023-11-19T06:01:05;101402.15;;;6.76;65.18
76808;BME280;65758;45.458;11.062;2023-11-19T06:03:35;101395.60;;;6.75;65.33
76808;BME280;65758;45.458;11.062;2023-11-19T06:06:02;101401.95;;;6.73;65.28
76808;BME280;65758;45.458;11.062;2023-11-19T06:08:29;101399.33;;;6.72;65.54
76808;BME280;65758;45.458;11.062;2023-11-19T06:10:57;101391.77;;;6.73;65.67
76808;BME280;65758;45.458;11.062;2023-11-19T06:13:24;101394.14;;;6.78;65.85
76808;BME280;65758;45.458;11.062;2023-11-19T06:15:52;101388.94;;;6.82;66.17
76808;BME280;65758;45.458;11.062;2023-11-19T06:18:19;101386.02;;;6.85;65.88
76808;BME280;65758;45.458;11.062;2023-11-19T06:20:50;101388.13;;;6.86;65.67
76808;BME280;65758;45.458;11.062;2023-11-19T06:23:16;101388.40;;;6.85;65.80
76808;BME280;65758;45.458;11.062;2023-11-19T06:25:43;101391.77;;;6.83;65.67
76808;BME280;65758;45.458;11.062;2023-11-19T06:28:11;101395.94;;;6.79;65.44
76808;BME280;65758;45.458;11.062;2023-11-19T06:30:38;101396.33;;;6.75;65.77
76808;BME280;65758;45.458;11.062;2023-11-19T06:33:05;101396.26;;;6.70;65.60
76808;BME280;65758;45.458;11.062;2023-11-19T06:35:32;101396.28;;;6.69;65.50
76808;BME280;65758;45.458;11.062;2023-11-19T06:38:03;101389.55;;;6.66;65.14
76808;BME280;65758;45.458;11.062;2023-11-19T06:40:34;101389.42;;;6.64;65.26
76808;BME280;65758;45.458;11.062;2023-11-19T06:43:04;101388.23;;;6.62;65.07
76808;BME280;65758;45.458;11.062;2023-11-19T06:45:31;101389.25;;;6.61;65.07
76808;BME280;65758;45.458;11.062;2023-11-19T06:48:01;101386.73;;;6.63;64.98
76808;BME280;65758;45.458;11.062;2023-11-19T06:50:30;101394.69;;;6.64;65.10
76808;BME280;65758;45.458;11.062;2023-11-19T06:52:57;101393.05;;;6.64;65.12
76808;BME280;65758;45.458;11.062;2023-11-19T06:55:25;101389.70;;;6.65;65.25
76808;BME280;65758;45.458;11.062;2023-11-19T06:57:52;101388.96;;;6.66;65.16
76808;BME280;65758;45.458;11.062;2023-11-19T07:00:19;101396.55;;;6.68;65.23
76808;BME280;65758;45.458;11.062;2023-11-19T07:02:46;101401.17;;;6.72;65.74
76808;BME280;65758;45.458;11.062;2023-11-19T07:05:14;101403.91;;;6.76;65.72
76808;BME280;65758;45.458;11.062;2023-11-19T07:07:40;101409.26;;;6.83;66.18
76808;BME280;65758;45.458;11.062;2023-11-19T07:10:07;101421.41;;;6.91;65.80
76808;BME280;65758;45.458;11.062;2023-11-19T07:12:36;101426.83;;;6.94;66.23
76808;BME280;65758;45.458;11.062;2023-11-19T07:15:04;101420.14;;;6.97;66.17
76808;BME280;65758;45.458;11.062;2023-11-19T07:17:32;101417.98;;;6.99;66.07
76808;BME280;65758;45.458;11.062;2023-11-19T07:19:59;101414.83;;;7.00;65.91
76808;BME280;65758;45.458;11.062;2023-11-19T07:22:26;101419.76;;;7.00;65.98
76808;BME280;65758;45.458;11.062;2023-11-19T07:24:56;101416.69;;;6.99;65.88
76808;BME280;65758;45.458;11.062;2023-11-19T07:27:23;101418.67;;;7.00;65.88
76808;BME280;65758;45.458;11.062;2023-11-19T07:29:51;101421.16;;;7.01;66.23
76808;BME280;65758;45.458;11.062;2023-11-19T07:32:18;101425.13;;;7.06;66.07
76808;BME280;65758;45.458;11.062;2023-11-19T07:34:45;101422.82;;;7.09;65.75
76808;BME280;65758;45.458;11.062;2023-11-19T07:37:11;101426.64;;;7.16;66.89
76808;BME280;65758;45.458;11.062;2023-11-19T07:39:39;101422.05;;;7.22;65.99
76808;BME280;65758;45.458;11.062;2023-11-19T07:42:08;101419.27;;;7.27;66.06
76808;BME280;65758;45.458;11.062;2023-11-19T07:44:36;101426.95;;;7.32;65.47
76808;BME280;65758;45.458;11.062;2023-11-19T07:47:03;101427.65;;;7.37;65.21
76808;BME280;65758;45.458;11.062;2023-11-19T07:49:31;101429.37;;;7.40;65.00
76808;BME280;65758;45.458;11.062;2023-11-19T07:51:58;101435.96;;;7.44;65.32
76808;BME280;65758;45.458;11.062;2023-11-19T07:54:25;101433.32;;;7.47;64.98
76808;BME280;65758;45.458;11.062;2023-11-19T07:56:52;101439.64;;;7.50;65.11
76808;BME280;65758;45.458;11.062;2023-11-19T07:59:20;101442.66;;;7.53;66.26
76808;BME280;65758;45.458;11.062;2023-11-19T08:01:47;101455.46;;;7.55;66.34
76808;BME280;65758;45.458;11.062;2023-11-19T08:04:14;101461.09;;;7.59;66.62
76808;BME280;65758;45.458;11.062;2023-11-19T08:06:41;101461.20;;;7.64;66.51
76808;BME280;65758;45.458;11.062;2023-11-19T08:09:08;101471.40;;;7.72;66.47
76808;BME280;65758;45.458;11.062;2023-11-19T08:11:43;101475.64;;;7.79;66.69
76808;BME280;65758;45.458;11.062;2023-11-19T08:14:10;101477.62;;;7.85;66.53
76808;BME280;65758;45.458;11.062;2023-11-19T08:16:39;101477.35;;;7.89;66.10
76808;BME280;65758;45.458;11.062;2023-11-19T08:19:06;101470.45;;;7.94;66.41
76808;BME280;65758;45.458;11.062;2023-11-19T08:21:35;101470.05;;;7.98;66.20
76808;BME280;65758;45.458;11.062;2023-11-19T08:24:02;101470.09;;;8.04;65.96
76808;BME280;65758;45.458;11.062;2023-11-19T08:26:29;101473.31;;;8.10;66.18
76808;BME280;65758;45.458;11.062;2023-11-19T08:28:55;101463.31;;;8.15;66.07
76808;BME280;65758;45.458;11.062;2023-11-19T08:31:24;101456.30;;;8.22;66.19
76808;BME280;65758;45.458;11.062;2023-11-19T08:33:52;101459.48;;;8.29;66.40
76808;BME280;65758;45.458;11.062;2023-11-19T08:36:19;101472.67;;;8.36;66.99
76808;BME280;65758;45.458;11.062;2023-11-19T08:38:46;101478.00;;;8.44;66.57
76808;BME280;65758;45.458;11.062;2023-11-19T08:41:16;101478.80;;;8.51;66.39
76808;BME280;65758;45.458;11.062;2023-11-19T08:43:45;101480.34;;;8.57;67.07
76808;BME280;65758;45.458;11.062;2023-11-19T08:46:12;101480.39;;;8.67;66.89
76808;BME280;65758;45.458;11.062;2023-11-19T08:48:39;101467.77;;;8.73;66.14
76808;BME280;65758;45.458;11.062;2023-11-19T08:51:06;101460.76;;;8.79;66.61
76808;BME280;65758;45.458;11.062;2023-11-19T08:53:33;101466.36;;;8.87;66.57
76808;BME280;65758;45.458;11.062;2023-11-19T08:56:01;101477.32;;;8.96;66.86
76808;BME280;65758;45.458;11.062;2023-11-19T08:58:30;101473.77;;;9.05;66.74
76808;BME280;65758;45.458;11.062;2023-11-19T09:00:58;101470.89;;;9.13;66.06
76808;BME280;65758;45.458;11.062;2023-11-19T09:03:25;101473.59;;;9.20;66.15
76808;BME280;65758;45.458;11.062;2023-11-19T09:05:57;101469.89;;;9.28;66.62
76808;BME280;65758;45.458;11.062;2023-11-19T09:08:24;101465.15;;;9.37;67.94
76808;BME280;65758;45.458;11.062;2023-11-19T09:10:51;101463.48;;;9.46;67.38
76808;BME280;65758;45.458;11.062;2023-11-19T09:13:17;101462.35;;;9.51;66.96
76808;BME280;65758;45.458;11.062;2023-11-19T09:15:45;101457.88;;;9.57;67.20
76808;BME280;65758;45.458;11.062;2023-11-19T09:18:12;101452.12;;;9.67;68.01
76808;BME280;65758;45.458;11.062;2023-11-19T09:20:39;101457.16;;;9.77;67.41
76808;BME280;65758;45.458;11.062;2023-11-19T09:23:06;101450.09;;;9.87;67.41
76808;BME280;65758;45.458;11.062;2023-11-19T09:25:33;101449.08;;;9.99;67.31
76808;BME280;65758;45.458;11.062;2023-11-19T09:28:03;101443.31;;;10.09;66.62
76808;BME280;65758;45.458;11.062;2023-11-19T09:30:30;101442.86;;;10.16;67.05
76808;BME280;65758;45.458;11.062;2023-11-19T09:33:00;101443.25;;;10.23;66.80
76808;BME280;65758;45.458;11.062;2023-11-19T09:35:27;101443.54;;;10.27;65.87
76808;BME280;65758;45.458;11.062;2023-11-19T09:37:54;101446.04;;;10.29;65.88
76808;BME280;65758;45.458;11.062;2023-11-19T09:40:21;101442.38;;;10.32;66.00
76808;BME280;65758;45.458;11.062;2023-11-19T09:42:48;101447.10;;;10.32;64.96
76808;BME280;65758;45.458;11.062;2023-11-19T09:45:16;101441.20;;;10.29;64.66
76808;BME280;65758;45.458;11.062;2023-11-19T09:47:45;101439.21;;;10.24;65.07
76808;BME280;65758;45.458;11.062;2023-11-19T09:50:16;101437.95;;;10.22;65.43
76808;BME280;65758;45.458;11.062;2023-11-19T09:52:44;101438.01;;;10.23;66.05
76808;BME280;65758;45.458;11.062;2023-11-19T09:55:12;101429.92;;;10.23;65.05
76808;BME280;65758;45.458;11.062;2023-11-19T09:57:39;101429.16;;;10.22;64.67
76808;BME280;65758;45.458;11.062;2023-11-19T10:00:08;101430.40;;;10.20;64.50
76808;BME280;65758;45.458;11.062;2023-11-19T10:02:37;101421.29;;;10.21;64.98
76808;BME280;65758;45.458;11.062;2023-11-19T10:05:07;101418.77;;;10.26;66.21
76808;BME280;65758;45.458;11.062;2023-11-19T10:07:34;101412.67;;;10.29;65.22
76808;BME280;65758;45.458;11.062;2023-11-19T10:10:02;101404.14;;;10.32;66.13
76808;BME280;65758;45.458;11.062;2023-11-19T10:12:32;101401.66;;;10.36;66.19
76808;BME280;65758;45.458;11.062;2023-11-19T10:14:59;101403.59;;;10.41;64.80
76808;BME280;65758;45.458;11.062;2023-11-19T10:17:32;101406.83;;;10.46;64.72
76808;BME280;65758;45.458;11.062;2023-11-19T10:20:00;101407.13;;;10.50;64.82
76808;BME280;65758;45.458;11.062;2023-11-19T10:22:27;101397.36;;;10.55;65.04
76808;BME280;65758;45.458;11.062;2023-11-19T10:24:54;101392.73;;;10.63;65.63
76808;BME280;65758;45.458;11.062;2023-11-19T10:27:25;101391.02;;;10.70;64.75
76808;BME280;65758;45.458;11.062;2023-11-19T10:29:52;101384.89;;;10.77;64.94
76808;BME280;65758;45.458;11.062;2023-11-19T10:32:19;101394.33;;;10.84;65.01
76808;BME280;65758;45.458;11.062;2023-11-19T10:35:04;101396.58;;;10.91;65.12
76808;BME280;65758;45.458;11.062;2023-11-19T10:37:32;101386.53;;;11.00;65.42
76808;BME280;65758;45.458;11.062;2023-11-19T10:40:02;101384.84;;;11.07;64.79
76808;BME280;65758;45.458;11.062;2023-11-19T10:42:31;101382.47;;;11.15;64.12
76808;BME280;65758;45.458;11.062;2023-11-19T10:44:58;101377.46;;;11.23;65.87
76808;BME280;65758;45.458;11.062;2023-11-19T10:47:25;101365.63;;;11.33;65.60
76808;BME280;65758;45.458;11.062;2023-11-19T10:49:55;101354.16;;;11.43;65.33
76808;BME280;65758;45.458;11.062;2023-11-19T10:52:23;101355.90;;;11.54;65.27
76808;BME280;65758;45.458;11.062;2023-11-19T10:55:00;101362.19;;;11.66;64.80
76808;BME280;65758;45.458;11.062;2023-11-19T10:57:30;101361.08;;;11.76;64.72
76808;BME280;65758;45.458;11.062;2023-11-19T11:00:01;101355.83;;;11.87;65.18
76808;BME280;65758;45.458;11.062;2023-11-19T11:02:33;101359.36;;;12.01;65.99
76808;BME280;65758;45.458;11.062;2023-11-19T11:05:03;101356.35;;;12.09;65.04
76808;BME280;65758;45.458;11.062;2023-11-19T11:07:31;101357.73;;;12.13;64.88
76808;BME280;65758;45.458;11.062;2023-11-19T11:10:07;101348.86;;;12.14;64.26
76808;BME280;65758;45.458;11.062;2023-11-19T11:12:37;101345.73;;;12.12;63.55
76808;BME280;65758;45.458;11.062;2023-11-19T11:15:08;101341.23;;;12.11;64.24
76808;BME280;65758;45.458;11.062;2023-11-19T11:17:39;101334.13;;;12.12;63.96
76808;BME280;65758;45.458;11.062;2023-11-19T11:20:09;101328.96;;;12.10;63.75
76808;BME280;65758;45.458;11.062;2023-11-19T11:22:49;101325.73;;;12.12;64.30
76808;BME280;65758;45.458;11.062;2023-11-19T11:28:05;101327.45;;;12.19;62.17
76808;BME280;65758;45.458;11.062;2023-11-19T11:30:46;101331.48;;;12.21;61.66
76808;BME280;65758;45.458;11.062;2023-11-19T11:33:30;101331.80;;;12.25;61.05
76808;BME280;65758;45.458;11.062;2023-11-19T11:38:40;101320.10;;;12.34;61.64
76808;BME280;65758;45.458;11.062;2023-11-19T11:41:22;101316.38;;;12.35;61.28
76808;BME280;65758;45.458;11.062;2023-11-19T11:43:54;101322.07;;;12.41;62.22
76808;BME280;65758;45.458;11.062;2023-11-19T11:49:04;101315.27;;;12.47;59.81
76808;BME280;65758;45.458;11.062;2023-11-19T11:57:11;101305.26;;;12.52;60.75
76808;BME280;65758;45.458;11.062;2023-11-19T11:59:47;101297.52;;;12.53;61.00
76808;BME280;65758;45.458;11.062;2023-11-19T12:02:17;101292.14;;;12.54;60.80
76808;BME280;65758;45.458;11.062;2023-11-19T12:04:52;101295.75;;;12.53;61.61
76808;BME280;65758;45.458;11.062;2023-11-19T12:07:24;101293.69;;;12.52;60.42
76808;BME280;65758;45.458;11.062;2023-11-19T12:09:55;101295.13;;;12.47;59.76
76808;BME280;65758;45.458;11.062;2023-11-19T12:12:34;101296.80;;;12.44;61.19
76808;BME280;65758;45.458;11.062;2023-11-19T12:20:01;101286.67;;;12.49;61.28
76808;BME280;65758;45.458;11.062;2023-11-19T12:22:28;101281.56;;;12.47;60.74
76808;BME280;65758;45.458;11.062;2023-11-19T12:24:55;101275.52;;;12.47;59.86
76808;BME280;65758;45.458;11.062;2023-11-19T12:27:23;101270.45;;;12.48;62.19
76808;BME280;65758;45.458;11.062;2023-11-19T12:29:49;101267.95;;;12.49;60.04
76808;BME280;65758;45.458;11.062;2023-11-19T12:32:17;101280.55;;;12.50;59.55
76808;BME280;65758;45.458;11.062;2023-11-19T12:34:45;101289.67;;;12.52;59.32
76808;BME280;65758;45.458;11.062;2023-11-19T12:37:12;101284.60;;;12.56;60.23
76808;BME280;65758;45.458;11.062;2023-11-19T12:39:39;101276.31;;;12.62;60.95
76808;BME280;65758;45.458;11.062;2023-11-19T12:42:07;101273.20;;;12.68;60.31
76808;BME280;65758;45.458;11.062;2023-11-19T12:44:33;101269.05;;;12.72;60.61
76808;BME280;65758;45.458;11.062;2023-11-19T12:47:02;101265.17;;;12.76;61.14
76808;BME280;65758;45.458;11.062;2023-11-19T12:49:30;101254.80;;;12.78;60.95
76808;BME280;65758;45.458;11.062;2023-11-19T12:51:57;101250.75;;;12.81;61.42
76808;BME280;65758;45.458;11.062;2023-11-19T12:54:35;101243.77;;;12.83;62.31
76808;BME280;65758;45.458;11.062;2023-11-19T12:57:03;101239.79;;;12.86;62.36
76808;BME280;65758;45.458;11.062;2023-11-19T12:59:31;101235.15;;;12.88;60.51
76808;BME280;65758;45.458;11.062;2023-11-19T13:01:59;101225.70;;;12.87;59.55
76808;BME280;65758;45.458;11.062;2023-11-19T13:04:30;101221.96;;;12.85;59.92
76808;BME280;65758;45.458;11.062;2023-11-19T13:06:59;101217.23;;;12.85;58.90
76808;BME280;65758;45.458;11.062;2023-11-19T13:09:31;101218.20;;;12.86;59.47
76808;BME280;65758;45.458;11.062;2023-11-19T13:11:58;101213.61;;;12.87;59.51